createdAt,value
2022-12-22T00:01:53.975Z,8.40
2022-12-22T00:04:36.046Z,8.50
2022-12-22T00:07:17.099Z,8.50
2022-12-22T00:09:58.081Z,8.50
2022-12-22T00:12:39.058Z,8.50
2022-12-22T00:15:20.038Z,8.50
2022-12-22T00:18:01.154Z,8.40
2022-12-22T00:20:43.823Z,8.40
2022-12-22T00:23:24.728Z,8.40
2022-12-22T00:26:06.275Z,8.40
2022-12-22T00:28:47.942Z,8.40
2022-12-22T00:31:28.911Z,8.40
2022-12-22T00:34:09.926Z,8.40
2022-12-22T00:36:51.876Z,8.50
2022-12-22T00:39:33.139Z,8.50
2022-12-22T00:42:14.394Z,8.50
2022-12-22T00:44:55.576Z,8.50
2022-12-22T00:47:43.793Z,8.50
2022-12-22T00:50:27.313Z,8.50
2022-12-22T00:53:09.579Z,8.50
2022-12-22T00:55:51.804Z,8.50
2022-12-22T00:58:36.593Z,8.50
2022-12-22T01:01:17.515Z,8.50
2022-12-22T01:03:58.510Z,8.50
2022-12-22T01:06:39.104Z,8.50
2022-12-22T01:09:21.376Z,8.50
2022-12-22T01:12:02.079Z,8.50
2022-12-22T01:14:43.125Z,8.50
2022-12-22T01:17:24.015Z,8.50
2022-12-22T01:20:04.864Z,8.50
2022-12-22T01:22:47.209Z,8.60
2022-12-22T01:25:33.816Z,8.60
2022-12-22T01:28:14.727Z,8.50
2022-12-22T01:30:55.796Z,8.50
2022-12-22T01:33:36.683Z,8.60
2022-12-22T01:36:17.575Z,8.60
2022-12-22T01:38:58.554Z,8.60
2022-12-22T01:41:40.674Z,8.50
2022-12-22T01:44:29.981Z,8.50
2022-12-22T01:47:10.997Z,8.60
2022-12-22T01:49:56.940Z,8.70
2022-12-22T01:52:42.343Z,8.70
2022-12-22T01:55:30.485Z,8.70
2022-12-22T01:58:12.810Z,8.70
2022-12-22T02:00:53.842Z,8.60
2022-12-22T02:03:36.765Z,8.70
2022-12-22T02:06:32.418Z,8.70
2022-12-22T02:09:30.998Z,8.70
2022-12-22T02:12:21.692Z,8.70
2022-12-22T02:15:13.509Z,8.80
2022-12-22T02:18:01.921Z,8.80
2022-12-22T02:20:59.231Z,8.80
2022-12-22T02:24:14.830Z,8.80
2022-12-22T02:27:01.637Z,8.80
2022-12-22T02:29:48.569Z,8.80
2022-12-22T02:32:30.313Z,8.80
2022-12-22T02:35:11.212Z,8.80
2022-12-22T02:38:05.189Z,8.90
2022-12-22T02:40:53.063Z,8.80
2022-12-22T02:43:53.513Z,8.90
2022-12-22T02:46:40.281Z,8.90
2022-12-22T02:49:29.770Z,8.90
2022-12-22T02:52:20.084Z,8.90
2022-12-22T02:55:02.005Z,8.90
2022-12-22T02:57:42.998Z,9.00
2022-12-22T03:00:27.521Z,9.00
2022-12-22T03:03:08.999Z,8.90
2022-12-22T03:05:50.077Z,9.00
2022-12-22T03:08:30.807Z,9.00
2022-12-22T03:11:11.912Z,9.00
2022-12-22T03:13:52.849Z,9.00
2022-12-22T03:16:35.628Z,8.90
2022-12-22T03:19:16.766Z,9.00
2022-12-22T03:21:57.789Z,8.90
2022-12-22T03:24:38.652Z,8.90
2022-12-22T03:27:01.953Z,9.00
2022-12-22T03:29:25.192Z,8.90
2022-12-22T03:31:49.904Z,9.00
2022-12-22T03:34:13.225Z,9.00
2022-12-22T03:36:36.525Z,9.00
2022-12-22T03:38:59.815Z,9.00
2022-12-22T03:41:40.514Z,9.00
2022-12-22T03:44:21.524Z,9.00
2022-12-22T03:46:44.963Z,9.00
2022-12-22T03:49:12.705Z,9.00
2022-12-22T03:51:38.587Z,9.00
2022-12-22T03:54:02.083Z,9.00
2022-12-22T03:56:25.375Z,9.00
2022-12-22T03:58:48.580Z,9.00
2022-12-22T04:01:11.926Z,9.10
2022-12-22T04:03:35.198Z,9.00
2022-12-22T04:05:59.930Z,9.00
2022-12-22T04:08:23.197Z,9.10
2022-12-22T04:11:04.179Z,9.10
2022-12-22T04:13:27.466Z,9.10
2022-12-22T04:15:50.702Z,9.10
2022-12-22T04:18:13.947Z,9.10
2022-12-22T04:20:37.196Z,9.10
2022-12-22T04:23:02.294Z,9.20
2022-12-22T04:25:27.092Z,9.20
2022-12-22T04:27:50.390Z,9.20
2022-12-22T04:30:15.171Z,9.10
2022-12-22T04:32:38.654Z,9.10
2022-12-22T04:35:02.171Z,9.10
2022-12-22T04:37:25.517Z,9.10
2022-12-22T04:39:50.233Z,9.10
2022-12-22T04:42:13.859Z,9.10
2022-12-22T04:44:37.066Z,9.10
2022-12-22T04:47:00.325Z,9.10
2022-12-22T04:49:23.537Z,9.10
2022-12-22T04:51:46.836Z,9.10
2022-12-22T04:54:10.144Z,9.10
2022-12-22T04:56:34.987Z,9.10
2022-12-22T04:58:58.238Z,9.10
2022-12-22T05:01:21.740Z,9.10
2022-12-22T05:03:45.569Z,9.10
2022-12-22T05:06:09.392Z,9.10
2022-12-22T05:08:32.617Z,9.10
2022-12-22T05:10:55.867Z,9.10
2022-12-22T05:13:20.480Z,9.10
2022-12-22T05:15:43.847Z,9.00
2022-12-22T05:18:07.241Z,9.10
2022-12-22T05:20:30.762Z,9.10
2022-12-22T05:22:55.366Z,9.10
2022-12-22T05:25:20.736Z,9.10
2022-12-22T05:27:44.230Z,9.00
2022-12-22T05:30:12.407Z,9.00
2022-12-22T05:32:36.196Z,9.10
2022-12-22T05:34:59.466Z,9.00
2022-12-22T05:37:22.797Z,9.00
2022-12-22T05:39:46.069Z,9.10
2022-12-22T05:42:09.348Z,9.10
2022-12-22T05:44:32.613Z,9.10
2022-12-22T05:46:57.239Z,9.10
2022-12-22T05:49:20.739Z,9.00
2022-12-22T05:51:43.990Z,9.00
2022-12-22T05:54:07.320Z,9.10
2022-12-22T05:56:30.868Z,9.10
2022-12-22T05:58:54.106Z,9.10
2022-12-22T06:01:17.800Z,9.10
2022-12-22T06:03:42.489Z,9.10
2022-12-22T06:06:06.625Z,9.10
2022-12-22T06:08:30.071Z,9.00
2022-12-22T06:10:55.520Z,9.10
2022-12-22T06:13:18.841Z,9.10
2022-12-22T06:15:42.216Z,9.10
2022-12-22T06:18:05.709Z,9.10
2022-12-22T06:20:30.401Z,9.10
2022-12-22T06:22:53.728Z,9.20
2022-12-22T06:25:18.780Z,9.20
2022-12-22T06:27:42.422Z,9.10
2022-12-22T06:30:07.429Z,9.20
2022-12-22T06:32:30.737Z,9.20
2022-12-22T06:34:54.000Z,9.10
2022-12-22T06:37:18.621Z,9.10
2022-12-22T06:39:41.919Z,9.10
2022-12-22T06:42:22.856Z,9.20
2022-12-22T06:44:46.134Z,9.10
2022-12-22T06:47:09.372Z,9.20
2022-12-22T06:49:32.653Z,9.20
2022-12-22T06:51:56.076Z,9.20
2022-12-22T06:54:25.850Z,9.20
2022-12-22T06:56:49.656Z,9.20
2022-12-22T06:59:13.436Z,9.10
2022-12-22T07:01:36.851Z,9.10
2022-12-22T07:04:00.291Z,9.20
2022-12-22T07:06:23.984Z,9.20
2022-12-22T07:08:48.018Z,9.20
2022-12-22T07:11:13.047Z,9.20
2022-12-22T07:13:37.147Z,9.20
2022-12-22T07:16:02.111Z,9.20
2022-12-22T07:18:26.206Z,9.20
2022-12-22T07:20:49.598Z,9.30
2022-12-22T07:23:13.831Z,9.20
2022-12-22T07:25:37.178Z,9.20
2022-12-22T07:28:02.107Z,9.20
2022-12-22T07:30:25.385Z,9.20
2022-12-22T07:32:48.735Z,9.20
2022-12-22T07:35:11.983Z,9.20
2022-12-22T07:37:35.196Z,9.20
2022-12-22T07:39:58.552Z,9.20
2022-12-22T07:42:39.472Z,9.20
2022-12-22T07:45:05.126Z,9.20
2022-12-22T07:47:33.386Z,9.20
2022-12-22T07:50:16.329Z,9.20
2022-12-22T07:52:39.657Z,9.30
2022-12-22T07:55:02.938Z,9.30
2022-12-22T07:57:27.130Z,9.40
2022-12-22T07:59:50.391Z,9.40
2022-12-22T08:02:15.340Z,9.40
2022-12-22T08:04:38.783Z,9.40
2022-12-22T08:07:02.233Z,9.40
2022-12-22T08:09:25.506Z,9.40
2022-12-22T08:11:50.143Z,9.40
2022-12-22T08:14:13.421Z,9.40
2022-12-22T08:16:36.999Z,9.40
2022-12-22T08:19:01.885Z,9.40
2022-12-22T08:21:25.652Z,9.40
2022-12-22T08:23:48.883Z,9.40
2022-12-22T08:26:16.381Z,9.40
2022-12-22T08:28:45.792Z,9.40
2022-12-22T08:31:09.429Z,9.40
2022-12-22T08:33:32.861Z,9.50
2022-12-22T08:36:04.231Z,9.50
2022-12-22T08:38:31.933Z,9.50
2022-12-22T08:40:55.368Z,9.50
2022-12-22T08:43:19.651Z,9.50
2022-12-22T08:45:43.971Z,9.50
2022-12-22T08:48:07.610Z,9.50
2022-12-22T08:50:31.071Z,9.50
2022-12-22T08:53:04.144Z,9.50
2022-12-22T08:55:27.424Z,9.50
2022-12-22T08:57:56.004Z,9.50
2022-12-22T09:00:20.373Z,9.60
2022-12-22T09:02:43.798Z,9.50
2022-12-22T09:05:07.908Z,9.50
2022-12-22T09:07:31.475Z,9.50
2022-12-22T09:09:57.535Z,9.60
2022-12-22T09:12:21.017Z,9.60
2022-12-22T09:14:44.601Z,9.60
2022-12-22T09:17:07.962Z,9.60
2022-12-22T09:19:31.243Z,9.50
2022-12-22T09:21:54.571Z,9.60
2022-12-22T09:24:18.592Z,9.60
2022-12-22T09:26:43.361Z,9.50
2022-12-22T09:29:06.934Z,9.60
2022-12-22T09:31:30.748Z,9.60
2022-12-22T09:33:54.779Z,9.60
2022-12-22T09:36:21.003Z,9.60
2022-12-22T09:38:45.251Z,9.60
2022-12-22T09:41:12.016Z,9.60
2022-12-22T09:43:36.640Z,9.60
2022-12-22T09:46:00.220Z,9.70
2022-12-22T09:48:23.743Z,9.60
2022-12-22T09:50:47.350Z,9.70
2022-12-22T09:53:19.785Z,9.70
2022-12-22T09:55:46.281Z,9.70
2022-12-22T09:58:26.167Z,9.70
2022-12-22T10:00:57.409Z,9.70
2022-12-22T10:03:34.668Z,9.60
2022-12-22T10:06:09.501Z,9.70
2022-12-22T10:08:36.644Z,9.70
2022-12-22T10:11:00.098Z,9.70
2022-12-22T10:13:24.090Z,9.80
2022-12-22T10:15:47.825Z,9.70
2022-12-22T10:18:15.017Z,9.70
2022-12-22T10:20:39.932Z,9.80
2022-12-22T10:23:17.728Z,9.70
2022-12-22T10:26:26.093Z,9.70
2022-12-22T10:28:34.735Z,9.70
2022-12-22T10:31:16.893Z,9.70
2022-12-22T10:33:47.103Z,9.70
2022-12-22T10:36:11.471Z,9.70
2022-12-22T10:38:37.463Z,9.70
2022-12-22T10:41:10.047Z,9.80
2022-12-22T10:43:37.068Z,9.90
2022-12-22T10:46:01.134Z,9.90
2022-12-22T10:48:29.975Z,9.90
2022-12-22T10:50:55.672Z,10.00
2022-12-22T10:53:19.020Z,9.70
2022-12-22T10:55:44.063Z,9.60
2022-12-22T10:58:18.448Z,9.60
2022-12-22T11:00:42.701Z,9.70
2022-12-22T11:03:08.241Z,9.80
2022-12-22T11:05:33.699Z,9.90
2022-12-22T11:08:02.464Z,10.00
2022-12-22T11:10:34.047Z,10.10
2022-12-22T11:13:10.564Z,10.00
2022-12-22T11:15:41.223Z,10.00
2022-12-22T11:18:15.384Z,9.90
2022-12-22T11:20:53.403Z,9.90
2022-12-22T11:23:29.795Z,10.00
2022-12-22T11:26:08.550Z,10.00
2022-12-22T11:28:48.177Z,9.90
2022-12-22T11:31:25.585Z,10.00
2022-12-22T11:34:05.637Z,10.00
2022-12-22T11:36:43.281Z,9.90
2022-12-22T11:39:14.911Z,10.00
2022-12-22T11:41:57.144Z,10.00
2022-12-22T11:44:41.594Z,10.10
2022-12-22T11:47:19.784Z,10.00
2022-12-22T11:50:58.533Z,9.90
2022-12-22T11:53:40.655Z,9.90
2022-12-22T11:56:20.301Z,9.80
2022-12-22T11:59:26.947Z,9.70
2022-12-22T12:02:43.846Z,9.80
2022-12-22T12:05:45.503Z,9.90
2022-12-22T12:08:23.013Z,10.00
2022-12-22T12:10:50.306Z,10.00
2022-12-22T12:13:34.778Z,10.00
2022-12-22T12:16:12.017Z,10.10
2022-12-22T12:18:54.059Z,10.20
2022-12-22T12:21:28.467Z,10.20
2022-12-22T12:24:28.634Z,10.20
2022-12-22T12:27:03.273Z,10.00
2022-12-22T12:29:30.503Z,10.00
2022-12-22T12:32:01.923Z,10.00
2022-12-22T12:34:26.937Z,10.00
2022-12-22T12:36:58.894Z,9.90
2022-12-22T12:39:32.342Z,9.90
2022-12-22T12:42:07.877Z,9.90
2022-12-22T12:44:36.603Z,10.00
2022-12-22T12:47:25.278Z,10.10
2022-12-22T12:50:14.494Z,10.10
2022-12-22T12:53:15.440Z,10.00
2022-12-22T12:56:00.916Z,10.00
2022-12-22T12:58:54.043Z,10.00
2022-12-22T13:02:01.087Z,10.10
2022-12-22T13:05:14.408Z,10.10
2022-12-22T13:08:18.249Z,10.10
2022-12-22T13:10:46.790Z,10.10
2022-12-22T13:13:14.820Z,10.10
2022-12-22T13:15:41.075Z,10.20
2022-12-22T13:18:12.416Z,10.10
2022-12-22T13:20:39.530Z,10.00
2022-12-22T13:23:11.072Z,10.00
2022-12-22T13:25:45.595Z,9.90
2022-12-22T13:28:16.720Z,9.90
2022-12-22T13:30:40.444Z,10.00
2022-12-22T13:33:10.819Z,10.00
2022-12-22T13:35:46.603Z,9.90
2022-12-22T13:38:29.185Z,9.90
2022-12-22T13:40:52.626Z,9.90
2022-12-22T13:43:17.912Z,9.90
2022-12-22T13:45:44.602Z,9.80
2022-12-22T13:48:18.747Z,9.90
2022-12-22T13:50:47.804Z,9.80
2022-12-22T13:53:34.408Z,9.80
2022-12-22T13:56:01.642Z,9.70
2022-12-22T13:58:29.699Z,9.70
2022-12-22T14:01:03.873Z,9.60
2022-12-22T14:03:58.066Z,9.60
2022-12-22T14:06:28.266Z,9.90
2022-12-22T14:08:51.609Z,9.90
2022-12-22T14:11:15.080Z,9.80
2022-12-22T14:13:39.596Z,9.70
2022-12-22T14:16:05.463Z,9.80
2022-12-22T14:18:30.585Z,9.70
2022-12-22T14:20:59.197Z,9.70
2022-12-22T14:23:25.691Z,9.70
2022-12-22T14:25:50.875Z,9.70
2022-12-22T14:28:24.527Z,9.70
2022-12-22T14:30:51.844Z,9.60
2022-12-22T14:33:31.056Z,9.70
2022-12-22T14:36:16.739Z,9.80
2022-12-22T14:38:43.407Z,9.90
2022-12-22T14:41:33.002Z,9.80
2022-12-22T14:43:59.351Z,9.80
2022-12-22T14:46:22.786Z,9.70
2022-12-22T14:48:48.762Z,9.70
2022-12-22T14:51:12.146Z,9.60
2022-12-22T14:53:45.129Z,9.60
2022-12-22T14:56:13.521Z,9.70
2022-12-22T14:58:41.721Z,9.70
2022-12-22T15:01:20.107Z,9.70
2022-12-22T15:03:44.323Z,9.60
2022-12-22T15:06:35.434Z,9.50
2022-12-22T15:12:15.145Z,9.60
2022-12-22T15:14:39.355Z,9.50
2022-12-22T15:17:03.583Z,9.50
2022-12-22T15:19:30.675Z,9.50
2022-12-22T15:21:55.447Z,9.50
2022-12-22T15:24:20.369Z,9.50
2022-12-22T15:26:44.486Z,9.50
2022-12-22T15:29:07.750Z,9.40
2022-12-22T15:31:31.372Z,9.40
2022-12-22T15:33:57.069Z,9.30
2022-12-22T15:36:20.527Z,9.30
2022-12-22T15:38:45.180Z,9.20
2022-12-22T15:41:09.193Z,9.20
2022-12-22T15:46:18.853Z,9.20
2022-12-22T15:48:42.515Z,9.20
2022-12-22T15:51:09.451Z,9.20
2022-12-22T15:53:35.005Z,9.20
2022-12-22T15:55:59.846Z,9.20
2022-12-22T15:58:27.265Z,9.10
2022-12-22T16:00:50.634Z,9.10
2022-12-22T16:03:15.110Z,9.10
2022-12-22T16:05:39.138Z,9.10
2022-12-22T16:08:03.606Z,9.10
2022-12-22T16:10:30.004Z,9.00
2022-12-22T16:13:00.243Z,9.00
2022-12-22T16:15:23.974Z,9.00
2022-12-22T16:17:47.297Z,8.90
2022-12-22T16:20:12.319Z,8.90
2022-12-22T16:22:38.271Z,8.80
2022-12-22T16:25:03.805Z,8.80
2022-12-22T16:27:27.206Z,8.90
2022-12-22T16:29:54.590Z,8.80
2022-12-22T16:32:25.017Z,8.80
2022-12-22T16:34:48.639Z,8.80
2022-12-22T16:37:12.299Z,8.70
2022-12-22T16:39:35.670Z,8.70
2022-12-22T16:42:00.605Z,8.70
2022-12-22T16:44:24.995Z,8.70
2022-12-22T16:46:51.187Z,8.80
2022-12-22T16:49:26.171Z,8.70
2022-12-22T16:51:52.860Z,8.70
2022-12-22T16:54:16.431Z,8.70
2022-12-22T16:56:41.845Z,8.80
2022-12-22T16:59:05.860Z,8.70
2022-12-22T17:01:36.976Z,8.70
2022-12-22T17:04:06.497Z,8.70
2022-12-22T17:06:30.351Z,8.80
2022-12-22T17:08:53.965Z,8.70
2022-12-22T17:11:23.043Z,8.80
2022-12-22T17:13:46.467Z,8.70
2022-12-22T17:16:19.267Z,8.80
2022-12-22T17:18:42.692Z,8.80
2022-12-22T17:21:07.596Z,8.80
2022-12-22T17:23:36.221Z,8.80
2022-12-22T17:26:02.301Z,8.80
2022-12-22T17:28:26.043Z,8.80
2022-12-22T17:30:49.425Z,8.90
2022-12-22T17:33:16.730Z,8.90
2022-12-22T17:35:40.101Z,8.90
2022-12-22T17:38:05.294Z,8.90
2022-12-22T17:40:30.887Z,8.90
2022-12-22T17:42:54.442Z,8.90
2022-12-22T17:45:19.099Z,9.00
2022-12-22T17:47:43.288Z,9.00
2022-12-22T17:50:08.497Z,9.00
2022-12-22T17:52:31.877Z,9.00
2022-12-22T17:54:56.668Z,9.00
2022-12-22T17:57:25.233Z,9.00
2022-12-22T17:59:49.703Z,9.00
2022-12-22T18:02:18.404Z,9.00
2022-12-22T18:04:41.885Z,8.90
2022-12-22T18:07:05.138Z,9.00
2022-12-22T18:09:28.391Z,9.00
2022-12-22T18:11:54.106Z,9.00
2022-12-22T18:14:18.303Z,9.00
2022-12-22T18:16:42.418Z,9.00
2022-12-22T18:19:05.909Z,9.00
2022-12-22T18:21:30.035Z,9.00
2022-12-22T18:23:54.679Z,9.00
2022-12-22T18:26:24.303Z,9.10
2022-12-22T18:28:49.637Z,9.10
2022-12-22T18:31:13.033Z,9.10
2022-12-22T18:33:36.739Z,9.10
2022-12-22T18:36:00.672Z,9.10
2022-12-22T18:38:28.585Z,9.00
2022-12-22T18:40:52.061Z,9.00
2022-12-22T18:43:15.454Z,9.10
2022-12-22T18:45:40.717Z,9.10
2022-12-22T18:48:04.110Z,9.10
2022-12-22T18:50:30.234Z,9.10
2022-12-22T18:52:54.555Z,9.00
2022-12-22T18:55:19.856Z,9.10
2022-12-22T18:57:45.644Z,9.10
2022-12-22T19:00:17.503Z,9.10
2022-12-22T19:02:42.681Z,9.10
2022-12-22T19:05:17.162Z,9.20
2022-12-22T19:07:40.542Z,9.10
2022-12-22T19:10:03.851Z,9.20
2022-12-22T19:12:29.675Z,9.10
2022-12-22T19:14:56.382Z,9.20
2022-12-22T19:17:23.767Z,9.20
2022-12-22T19:19:48.575Z,9.20
2022-12-22T19:22:14.409Z,9.20
2022-12-22T19:24:38.092Z,9.20
2022-12-22T19:27:01.757Z,9.20
2022-12-22T19:29:25.525Z,9.20
2022-12-22T19:31:49.167Z,9.30
2022-12-22T19:34:20.229Z,9.30
2022-12-22T19:36:44.974Z,9.20
2022-12-22T19:39:08.220Z,9.30
2022-12-22T19:41:40.017Z,9.30
2022-12-22T19:44:03.841Z,9.30
2022-12-22T19:46:30.652Z,9.30
2022-12-22T19:48:53.976Z,9.20
2022-12-22T19:51:17.901Z,9.20
2022-12-22T19:53:42.748Z,9.30
2022-12-22T19:56:22.840Z,9.40
2022-12-22T19:58:46.288Z,9.40
2022-12-22T20:01:12.191Z,9.50
2022-12-22T20:03:35.587Z,9.50
2022-12-22T20:05:58.944Z,9.50
2022-12-22T20:08:22.289Z,9.60
2022-12-22T20:10:49.562Z,9.70
2022-12-22T20:13:19.600Z,9.90
2022-12-22T20:15:43.491Z,9.90
2022-12-22T20:18:18.290Z,9.90
2022-12-22T20:20:42.240Z,10.00
2022-12-22T20:23:12.498Z,10.00
2022-12-22T20:25:42.351Z,10.00
2022-12-22T20:28:14.788Z,10.00
2022-12-22T20:30:38.205Z,10.10
2022-12-22T20:33:01.611Z,10.10
2022-12-22T20:35:25.978Z,10.20
2022-12-22T20:37:50.129Z,10.20
2022-12-22T20:40:26.949Z,10.20
2022-12-22T20:42:50.666Z,10.20
2022-12-22T20:45:15.470Z,10.40
2022-12-22T20:47:39.695Z,10.30
2022-12-22T20:50:03.118Z,10.40
2022-12-22T20:52:27.090Z,10.40
2022-12-22T20:54:50.510Z,10.40
2022-12-22T20:57:15.061Z,10.50
2022-12-22T20:59:38.289Z,10.40
2022-12-22T21:02:03.367Z,10.50
2022-12-22T21:04:26.855Z,10.50
2022-12-22T21:06:53.062Z,10.40
2022-12-22T21:09:17.107Z,10.50
2022-12-22T21:11:40.465Z,10.50
2022-12-22T21:14:03.886Z,10.50
2022-12-22T21:16:31.087Z,10.50
2022-12-22T21:18:56.097Z,10.50
2022-12-22T21:21:20.073Z,10.50
2022-12-22T21:23:43.535Z,10.50
2022-12-22T21:26:12.001Z,10.50
2022-12-22T21:28:37.579Z,10.50
2022-12-22T21:31:01.005Z,10.50
2022-12-22T21:33:24.428Z,10.50
2022-12-22T21:35:49.132Z,10.50
2022-12-22T21:38:18.101Z,10.50
2022-12-22T21:40:41.664Z,10.50
2022-12-22T21:43:05.032Z,10.60
2022-12-22T21:45:31.884Z,10.50
2022-12-22T21:47:55.908Z,10.50
2022-12-22T21:50:23.079Z,10.40
2022-12-22T21:52:51.196Z,10.40
2022-12-22T21:55:14.672Z,10.50
2022-12-22T21:57:37.906Z,10.50
2022-12-22T22:00:01.487Z,10.40
2022-12-22T22:02:24.869Z,10.40
2022-12-22T22:04:54.560Z,10.40
2022-12-22T22:07:18.561Z,10.40
2022-12-22T22:09:43.200Z,10.40
2022-12-22T22:12:28.271Z,10.30
2022-12-22T22:14:51.789Z,10.30
2022-12-22T22:17:15.016Z,10.30
2022-12-22T22:19:38.718Z,10.30
2022-12-22T22:22:01.977Z,10.20
2022-12-22T22:24:25.798Z,10.20
2022-12-22T22:26:51.612Z,10.30
2022-12-22T22:29:15.093Z,10.30
2022-12-22T22:31:38.466Z,10.30
2022-12-22T22:34:01.740Z,10.30
2022-12-22T22:36:25.126Z,10.30
2022-12-22T22:38:51.583Z,10.20
2022-12-22T22:41:14.929Z,10.20
2022-12-22T22:43:39.644Z,10.10
2022-12-22T22:46:03.058Z,10.10
2022-12-22T22:48:26.819Z,10.10
2022-12-22T22:50:50.444Z,10.00
2022-12-22T22:53:13.737Z,10.00
2022-12-22T22:55:37.100Z,10.10
2022-12-22T22:58:00.350Z,10.20
2022-12-22T23:00:25.196Z,10.10
2022-12-22T23:02:48.856Z,10.10
2022-12-22T23:05:17.105Z,10.10
2022-12-22T23:07:45.872Z,10.00
2022-12-22T23:10:10.835Z,10.00
2022-12-22T23:12:34.309Z,10.00
2022-12-22T23:14:57.795Z,10.00
2022-12-22T23:17:22.512Z,10.00
2022-12-22T23:19:45.777Z,10.00
2022-12-22T23:22:09.168Z,10.00
2022-12-22T23:24:33.629Z,10.10
2022-12-22T23:26:56.885Z,10.10
2022-12-22T23:29:20.382Z,10.00
2022-12-22T23:31:43.781Z,10.00
2022-12-22T23:34:08.627Z,10.10
2022-12-22T23:36:32.627Z,10.10
2022-12-22T23:38:56.025Z,10.10
2022-12-22T23:41:19.876Z,10.10
2022-12-22T23:43:43.356Z,10.20
2022-12-22T23:46:10.745Z,10.10
2022-12-22T23:48:34.190Z,10.10
2022-12-22T23:50:58.915Z,10.00
2022-12-22T23:53:22.357Z,10.00
2022-12-22T23:55:45.666Z,10.10
2022-12-22T23:58:09.612Z,10.10
